createdAt,value
2018-07-26T00:01:28.202Z,19.33
2018-07-26T00:03:56.977Z,19.42
2018-07-26T00:06:25.765Z,19.50
2018-07-26T00:11:22.283Z,19.57
2018-07-26T00:13:51.058Z,19.56
2018-07-26T00:16:19.799Z,19.54
2018-07-26T00:18:48.545Z,19.52
2018-07-26T00:21:17.326Z,19.40
2018-07-26T00:23:46.102Z,19.23
2018-07-26T00:26:14.825Z,19.22
2018-07-26T00:28:43.509Z,19.15
2018-07-26T00:31:12.294Z,19.14
2018-07-26T00:33:41.031Z,19.16
2018-07-26T00:36:09.774Z,19.14
2018-07-26T00:38:38.525Z,19.21
2018-07-26T00:41:07.260Z,19.20
2018-07-26T00:43:36.006Z,19.18
2018-07-26T00:46:04.825Z,19.20
2018-07-26T00:48:33.542Z,19.23
2018-07-26T00:51:02.307Z,19.21
2018-07-26T00:53:31.099Z,19.19
2018-07-26T00:55:59.876Z,19.21
2018-07-26T00:58:28.611Z,19.21
2018-07-26T01:00:57.360Z,19.26
2018-07-26T01:03:26.087Z,19.31
2018-07-26T01:05:54.811Z,19.28
2018-07-26T01:08:23.564Z,19.28
2018-07-26T01:10:52.690Z,19.32
2018-07-26T01:13:21.429Z,19.35
2018-07-26T01:15:50.219Z,19.44
2018-07-26T01:18:18.992Z,19.42
2018-07-26T01:20:47.747Z,19.33
2018-07-26T01:23:16.553Z,19.41
2018-07-26T01:25:45.334Z,19.42
2018-07-26T01:28:14.134Z,19.37
2018-07-26T01:30:42.986Z,19.43
2018-07-26T01:33:11.758Z,19.39
2018-07-26T01:35:40.485Z,19.40
2018-07-26T01:38:09.303Z,19.43
2018-07-26T01:40:38.175Z,19.44
2018-07-26T01:43:25.894Z,19.44
2018-07-26T01:45:54.721Z,19.45
2018-07-26T01:48:23.613Z,19.45
2018-07-26T01:50:52.341Z,19.44
2018-07-26T01:53:21.171Z,19.40
2018-07-26T01:55:49.925Z,19.45
2018-07-26T01:58:18.761Z,19.46
2018-07-26T02:00:47.506Z,19.50
2018-07-26T02:03:16.269Z,19.51
2018-07-26T02:05:44.993Z,19.50
2018-07-26T02:08:13.754Z,19.41
2018-07-26T02:10:42.626Z,19.36
2018-07-26T02:13:11.626Z,19.36
2018-07-26T02:15:40.365Z,19.41
2018-07-26T02:18:09.210Z,19.44
2018-07-26T02:20:38.002Z,19.48
2018-07-26T02:23:06.743Z,19.49
2018-07-26T02:25:36.493Z,19.40
2018-07-26T02:28:05.510Z,19.41
2018-07-26T02:30:34.587Z,19.44
2018-07-26T02:33:03.369Z,19.44
2018-07-26T02:35:32.099Z,19.46
2018-07-26T02:38:00.853Z,19.44
2018-07-26T02:40:29.689Z,19.44
2018-07-26T02:42:58.449Z,19.49
2018-07-26T02:45:27.274Z,19.54
2018-07-26T02:47:56.018Z,19.49
2018-07-26T02:50:24.798Z,19.39
2018-07-26T02:52:53.583Z,19.36
2018-07-26T02:55:22.366Z,19.25
2018-07-26T02:57:51.446Z,19.22
2018-07-26T03:00:20.264Z,19.18
2018-07-26T03:02:49.038Z,19.17
2018-07-26T03:05:17.794Z,19.12
2018-07-26T03:07:46.496Z,19.10
2018-07-26T03:10:15.251Z,19.02
2018-07-26T03:12:44.147Z,19.00
2018-07-26T03:15:12.914Z,19.05
2018-07-26T03:17:41.696Z,19.16
2018-07-26T03:20:10.545Z,19.20
2018-07-26T03:22:39.323Z,19.21
2018-07-26T03:25:08.053Z,19.20
2018-07-26T03:27:36.824Z,19.28
2018-07-26T03:30:07.371Z,19.34
2018-07-26T03:32:36.142Z,19.36
2018-07-26T03:35:05.366Z,19.42
2018-07-26T03:37:34.121Z,19.49
2018-07-26T03:40:02.991Z,19.51
2018-07-26T03:42:31.775Z,19.56
2018-07-26T03:45:00.545Z,19.54
2018-07-26T03:47:29.350Z,19.59
2018-07-26T03:49:58.089Z,19.55
2018-07-26T03:52:26.937Z,19.57
2018-07-26T03:54:55.690Z,19.51
2018-07-26T03:57:24.474Z,19.55
2018-07-26T03:59:53.192Z,19.62
2018-07-26T04:02:21.917Z,19.66
2018-07-26T04:04:50.683Z,19.70
2018-07-26T04:07:19.434Z,19.76
2018-07-26T04:09:48.170Z,19.82
2018-07-26T04:12:16.934Z,19.94
2018-07-26T04:14:45.706Z,20.04
2018-07-26T04:17:14.441Z,20.15
2018-07-26T04:19:43.211Z,20.20
2018-07-26T04:22:11.961Z,20.21
2018-07-26T04:24:40.692Z,20.21
2018-07-26T04:27:09.850Z,20.27
2018-07-26T04:29:38.662Z,20.40
2018-07-26T04:32:07.438Z,20.46
2018-07-26T04:34:36.308Z,20.49
2018-07-26T04:37:05.085Z,20.58
2018-07-26T04:39:33.841Z,20.60
2018-07-26T04:42:02.728Z,20.71
2018-07-26T04:44:31.566Z,20.63
2018-07-26T04:47:00.404Z,20.63
2018-07-26T04:49:29.172Z,20.66
2018-07-26T04:51:58.074Z,20.85
2018-07-26T04:54:27.347Z,20.97
2018-07-26T04:56:56.226Z,21.13
2018-07-26T04:59:24.999Z,21.19
2018-07-26T05:01:53.736Z,21.31
2018-07-26T05:04:22.533Z,21.44
2018-07-26T05:06:51.341Z,21.52
2018-07-26T05:09:20.093Z,21.43
2018-07-26T05:11:48.853Z,21.46
2018-07-26T05:14:17.863Z,21.59
2018-07-26T05:16:46.597Z,21.81
2018-07-26T05:19:15.398Z,22.30
2018-07-26T05:21:44.246Z,23.13
2018-07-26T05:24:13.046Z,23.89
2018-07-26T05:26:42.193Z,24.26
2018-07-26T05:29:11.050Z,24.43
2018-07-26T05:31:39.827Z,24.94
2018-07-26T05:34:08.661Z,25.55
2018-07-26T05:36:37.429Z,25.80
2018-07-26T05:39:09.563Z,25.79
2018-07-26T05:41:38.506Z,25.58
2018-07-26T05:44:07.316Z,25.33
2018-07-26T05:46:36.095Z,24.75
2018-07-26T05:49:04.912Z,24.39
2018-07-26T05:51:33.721Z,24.08
2018-07-26T05:54:02.498Z,23.68
2018-07-26T05:56:31.271Z,23.36
2018-07-26T05:59:00.036Z,23.31
2018-07-26T06:01:29.285Z,23.35
2018-07-26T06:03:58.022Z,23.12
2018-07-26T06:06:26.823Z,22.93
2018-07-26T06:08:55.615Z,22.83
2018-07-26T06:11:24.510Z,22.90
2018-07-26T06:13:53.267Z,23.08
2018-07-26T06:16:22.126Z,22.99
2018-07-26T06:18:51.017Z,22.96
2018-07-26T06:21:19.866Z,23.06
2018-07-26T06:23:48.635Z,23.14
2018-07-26T06:26:17.416Z,23.18
2018-07-26T06:28:46.498Z,23.19
2018-07-26T06:31:15.430Z,23.22
2018-07-26T06:33:44.349Z,23.33
2018-07-26T06:36:13.163Z,23.59
2018-07-26T06:38:41.938Z,23.69
2018-07-26T06:41:10.691Z,23.50
2018-07-26T06:43:39.451Z,23.36
2018-07-26T06:46:08.487Z,23.51
2018-07-26T06:48:37.318Z,23.73
2018-07-26T06:51:06.203Z,23.83
2018-07-26T06:53:35.706Z,23.94
2018-07-26T06:56:04.956Z,24.03
2018-07-26T06:58:33.721Z,24.06
2018-07-26T07:01:02.923Z,24.13
2018-07-26T07:03:31.683Z,23.90
2018-07-26T07:06:00.414Z,23.71
2018-07-26T07:08:29.197Z,23.96
2018-07-26T07:10:57.956Z,24.28
2018-07-26T07:13:26.790Z,24.28
2018-07-26T07:15:55.606Z,24.29
2018-07-26T07:18:24.702Z,24.41
2018-07-26T07:20:53.548Z,24.38
2018-07-26T07:23:22.351Z,24.39
2018-07-26T07:25:51.182Z,24.43
2018-07-26T07:28:19.964Z,24.35
2018-07-26T07:30:48.888Z,24.05
2018-07-26T07:33:17.659Z,23.82
2018-07-26T07:35:46.527Z,23.89
2018-07-26T07:38:15.859Z,23.92
2018-07-26T07:40:44.679Z,24.16
2018-07-26T07:43:13.497Z,24.41
2018-07-26T07:45:42.640Z,24.58
2018-07-26T07:48:11.419Z,24.65
2018-07-26T07:50:40.223Z,24.84
2018-07-26T07:53:08.985Z,24.86
2018-07-26T07:55:37.743Z,24.99
2018-07-26T07:58:07.186Z,24.78
2018-07-26T08:00:35.990Z,24.78
2018-07-26T08:03:05.154Z,24.92
2018-07-26T08:05:33.907Z,25.12
2018-07-26T08:08:03.075Z,25.00
2018-07-26T08:10:31.862Z,24.93
2018-07-26T08:13:00.622Z,24.83
2018-07-26T08:15:29.346Z,24.68
2018-07-26T08:17:58.082Z,24.63
2018-07-26T08:20:26.829Z,24.57
2018-07-26T08:22:55.590Z,24.70
2018-07-26T08:25:24.415Z,24.85
2018-07-26T08:27:53.255Z,24.91
2018-07-26T08:30:22.025Z,25.13
2018-07-26T08:32:50.769Z,25.22
2018-07-26T08:35:19.605Z,25.25
2018-07-26T08:37:48.418Z,25.23
2018-07-26T08:40:17.181Z,25.33
2018-07-26T08:42:45.980Z,25.46
2018-07-26T08:45:14.774Z,25.79
2018-07-26T08:47:43.757Z,26.08
2018-07-26T08:50:12.623Z,26.28
2018-07-26T08:52:41.584Z,26.40
2018-07-26T08:55:10.434Z,26.61
2018-07-26T08:57:39.213Z,26.69
2018-07-26T09:00:08.474Z,26.75
2018-07-26T09:02:37.515Z,26.78
2018-07-26T09:05:07.758Z,26.95
2018-07-26T09:07:36.588Z,27.12
2018-07-26T09:10:05.408Z,27.01
2018-07-26T09:12:34.234Z,27.06
2018-07-26T09:15:03.016Z,27.07
2018-07-26T09:17:31.801Z,26.94
2018-07-26T09:20:00.573Z,26.78
2018-07-26T09:22:29.373Z,26.71
2018-07-26T09:24:58.169Z,26.81
2018-07-26T09:27:27.002Z,26.65
2018-07-26T09:29:55.766Z,26.60
2018-07-26T09:32:24.482Z,26.52
2018-07-26T09:34:53.235Z,26.43
2018-07-26T09:37:22.110Z,26.15
2018-07-26T09:39:50.879Z,26.10
2018-07-26T09:42:19.665Z,26.05
2018-07-26T09:44:48.398Z,26.01
2018-07-26T09:47:17.183Z,26.07
2018-07-26T09:49:46.164Z,26.24
2018-07-26T09:52:14.970Z,26.37
2018-07-26T09:54:43.949Z,26.34
2018-07-26T09:57:13.235Z,26.31
2018-07-26T09:59:42.870Z,26.37
2018-07-26T10:02:11.567Z,26.56
2018-07-26T10:04:40.422Z,26.57
2018-07-26T10:07:09.167Z,26.77
2018-07-26T10:09:37.904Z,26.83
2018-07-26T10:12:07.017Z,26.84
2018-07-26T10:14:35.761Z,26.95
2018-07-26T10:17:04.669Z,27.03
2018-07-26T10:19:33.417Z,27.11
2018-07-26T10:22:02.246Z,27.01
2018-07-26T10:24:30.992Z,26.62
2018-07-26T10:26:59.727Z,26.64
2018-07-26T10:29:28.458Z,26.77
2018-07-26T10:31:57.230Z,26.93
2018-07-26T10:34:26.003Z,27.24
2018-07-26T10:36:54.747Z,27.40
2018-07-26T10:39:23.596Z,27.38
2018-07-26T10:41:52.337Z,27.42
2018-07-26T10:44:21.087Z,27.56
2018-07-26T10:46:49.835Z,27.73
2018-07-26T10:49:18.554Z,27.99
2018-07-26T10:51:47.347Z,28.40
2018-07-26T10:54:16.073Z,28.51
2018-07-26T10:56:44.818Z,28.33
2018-07-26T10:59:13.506Z,28.54
2018-07-26T11:01:42.283Z,28.56
2018-07-26T11:04:11.062Z,28.46
2018-07-26T11:06:39.848Z,27.81
2018-07-26T11:09:09.756Z,27.28
2018-07-26T11:11:38.508Z,26.85
2018-07-26T11:14:07.952Z,26.58
2018-07-26T11:16:36.859Z,26.57
2018-07-26T11:19:05.907Z,26.44
2018-07-26T11:21:34.805Z,26.41
2018-07-26T11:24:03.581Z,26.42
2018-07-26T11:26:32.345Z,26.39
2018-07-26T11:29:01.090Z,26.38
2018-07-26T11:31:29.878Z,26.48
2018-07-26T11:33:58.784Z,26.75
2018-07-26T11:36:27.525Z,27.05
2018-07-26T11:38:56.304Z,27.10
2018-07-26T11:41:25.086Z,27.09
2018-07-26T11:43:54.048Z,27.17
2018-07-26T11:46:22.794Z,27.22
2018-07-26T11:48:51.537Z,27.43
2018-07-26T11:51:20.281Z,27.61
2018-07-26T11:53:49.036Z,27.58
2018-07-26T11:56:17.826Z,26.83
2018-07-26T11:58:46.565Z,26.76
2018-07-26T12:01:15.425Z,26.58
2018-07-26T12:03:44.189Z,26.07
2018-07-26T12:06:12.973Z,25.64
2018-07-26T12:08:41.687Z,25.30
2018-07-26T12:11:10.559Z,25.17
2018-07-26T12:13:39.284Z,25.35
2018-07-26T12:16:08.070Z,25.48
2018-07-26T12:18:36.793Z,25.68
2018-07-26T12:21:05.622Z,25.62
2018-07-26T12:23:34.390Z,25.64
2018-07-26T12:26:03.137Z,25.66
2018-07-26T12:28:31.914Z,26.03
2018-07-26T12:31:00.694Z,25.85
2018-07-26T12:33:29.512Z,25.81
2018-07-26T12:35:58.393Z,25.90
2018-07-26T12:38:27.330Z,25.82
2018-07-26T12:40:56.113Z,25.82
2018-07-26T12:43:24.945Z,25.84
2018-07-26T12:45:53.764Z,25.47
2018-07-26T12:48:22.633Z,25.40
2018-07-26T12:50:51.401Z,25.07
2018-07-26T12:53:20.110Z,24.86
2018-07-26T12:55:48.946Z,24.92
2018-07-26T12:58:18.005Z,25.05
2018-07-26T13:00:46.781Z,25.18
2018-07-26T13:03:15.582Z,25.18
2018-07-26T13:05:44.774Z,25.25
2018-07-26T13:08:13.535Z,25.22
2018-07-26T13:10:42.362Z,25.38
2018-07-26T13:13:11.158Z,25.52
2018-07-26T13:15:39.944Z,25.70
2018-07-26T13:18:09.735Z,25.90
2018-07-26T13:20:38.595Z,26.10
2018-07-26T13:23:07.483Z,26.24
2018-07-26T13:25:36.220Z,26.35
2018-07-26T13:28:04.978Z,26.46
2018-07-26T13:30:33.888Z,26.59
2018-07-26T13:33:02.698Z,26.71
2018-07-26T13:35:31.471Z,26.76
2018-07-26T13:38:00.258Z,26.88
2018-07-26T13:40:29.086Z,27.00
2018-07-26T13:42:58.771Z,26.97
2018-07-26T13:45:27.574Z,26.92
2018-07-26T13:47:56.358Z,26.95
2018-07-26T13:50:25.099Z,26.78
2018-07-26T13:52:53.805Z,26.75
2018-07-26T13:55:22.621Z,26.72
2018-07-26T13:57:51.563Z,26.82
2018-07-26T14:00:20.299Z,26.87
2018-07-26T14:02:49.275Z,26.90
2018-07-26T14:05:18.115Z,26.89
2018-07-26T14:07:46.957Z,26.94
2018-07-26T14:10:15.914Z,27.02
2018-07-26T14:12:45.014Z,27.00
2018-07-26T14:15:13.825Z,26.97
2018-07-26T14:17:42.725Z,26.91
2018-07-26T14:20:12.558Z,26.87
2018-07-26T14:22:41.764Z,26.88
2018-07-26T14:25:10.476Z,26.92
2018-07-26T14:27:39.398Z,26.93
2018-07-26T14:30:09.386Z,26.89
2018-07-26T14:32:38.162Z,26.89
2018-07-26T14:35:07.137Z,26.89
2018-07-26T14:37:35.884Z,26.90
2018-07-26T14:40:05.311Z,26.91
2018-07-26T14:42:34.070Z,26.89
2018-07-26T14:45:02.879Z,26.94
2018-07-26T14:47:31.661Z,26.97
2018-07-26T14:50:00.430Z,27.05
2018-07-26T14:52:29.233Z,27.06
2018-07-26T14:54:57.986Z,27.13
2018-07-26T14:57:26.917Z,27.07
2018-07-26T14:59:55.785Z,27.01
2018-07-26T15:02:24.585Z,26.90
2018-07-26T15:04:53.309Z,26.83
2018-07-26T15:07:22.050Z,26.69
2018-07-26T15:09:50.807Z,26.46
2018-07-26T15:12:19.850Z,26.36
2018-07-26T15:14:48.565Z,26.12
2018-07-26T15:17:17.357Z,26.07
2018-07-26T15:19:48.640Z,26.04
2018-07-26T15:22:17.415Z,26.15
2018-07-26T15:24:46.249Z,26.05
2018-07-26T15:27:14.992Z,25.74
2018-07-26T15:29:43.903Z,25.59
2018-07-26T15:32:12.675Z,25.55
2018-07-26T15:34:41.472Z,25.46
2018-07-26T15:37:10.212Z,25.57
2018-07-26T15:39:39.021Z,25.54
2018-07-26T15:42:08.238Z,25.50
2018-07-26T15:44:37.127Z,25.54
2018-07-26T15:47:06.175Z,25.52
2018-07-26T15:49:35.106Z,25.39
2018-07-26T15:52:03.969Z,25.37
2018-07-26T15:54:32.746Z,25.29
2018-07-26T15:57:01.877Z,25.19
2018-07-26T15:59:30.600Z,25.09
2018-07-26T16:01:59.420Z,25.00
2018-07-26T16:04:28.252Z,24.84
2018-07-26T16:06:56.966Z,24.78
2018-07-26T16:09:25.717Z,24.72
2018-07-26T16:11:54.477Z,24.71
2018-07-26T16:14:23.240Z,24.72
2018-07-26T16:16:51.977Z,24.70
2018-07-26T16:19:20.826Z,24.77
2018-07-26T16:21:49.960Z,24.83
2018-07-26T16:24:18.736Z,24.96
2018-07-26T16:26:47.585Z,24.99
2018-07-26T16:29:16.442Z,25.00
2018-07-26T16:31:45.248Z,24.94
2018-07-26T16:34:14.035Z,24.97
2018-07-26T16:36:42.838Z,25.02
2018-07-26T16:39:12.744Z,25.02
2018-07-26T16:41:41.570Z,24.95
2018-07-26T16:44:10.325Z,24.88
2018-07-26T16:46:39.192Z,24.80
2018-07-26T16:49:09.002Z,24.81
2018-07-26T16:51:37.886Z,24.84
2018-07-26T16:54:06.650Z,24.85
2018-07-26T16:56:35.420Z,24.89
2018-07-26T16:59:04.738Z,24.94
2018-07-26T17:01:33.565Z,24.84
2018-07-26T17:04:02.527Z,24.80
2018-07-26T17:06:31.389Z,24.78
2018-07-26T17:09:00.176Z,24.84
2018-07-26T17:11:29.174Z,24.81
2018-07-26T17:13:58.244Z,24.78
2018-07-26T17:16:26.984Z,24.76
2018-07-26T17:18:55.866Z,24.78
2018-07-26T17:21:24.682Z,24.78
2018-07-26T17:23:53.427Z,24.77
2018-07-26T17:26:22.249Z,24.80
2018-07-26T17:28:51.607Z,24.72
2018-07-26T17:31:20.574Z,24.71
2018-07-26T17:33:49.325Z,24.76
2018-07-26T17:36:18.080Z,24.72
2018-07-26T17:38:46.875Z,24.66
2018-07-26T17:41:15.696Z,24.58
2018-07-26T17:43:44.552Z,24.51
2018-07-26T17:46:13.850Z,24.43
2018-07-26T17:48:42.698Z,24.34
2018-07-26T17:51:11.625Z,24.31
2018-07-26T17:53:40.607Z,24.28
2018-07-26T17:56:09.485Z,24.25
2018-07-26T17:58:38.518Z,24.21
2018-07-26T18:01:07.397Z,24.12
2018-07-26T18:03:36.208Z,23.95
2018-07-26T18:06:05.005Z,23.76
2018-07-26T18:08:34.434Z,23.74
2018-07-26T18:11:03.249Z,23.71
2018-07-26T18:13:32.059Z,23.63
2018-07-26T18:16:00.796Z,23.63
2018-07-26T18:18:29.630Z,23.64
2018-07-26T18:20:58.913Z,23.65
2018-07-26T18:23:27.701Z,23.65
2018-07-26T18:25:56.549Z,23.66
2018-07-26T18:28:25.274Z,23.59
2018-07-26T18:30:54.369Z,23.59
2018-07-26T18:33:23.314Z,23.62
2018-07-26T18:35:52.130Z,23.65
2018-07-26T18:38:20.993Z,23.62
2018-07-26T18:40:49.985Z,23.63
2018-07-26T18:43:18.955Z,23.67
2018-07-26T18:45:47.812Z,23.67
2018-07-26T18:48:16.608Z,23.59
2018-07-26T18:50:45.417Z,23.58
2018-07-26T18:53:14.249Z,23.52
2018-07-26T18:55:43.018Z,23.49
2018-07-26T18:58:11.730Z,23.48
2018-07-26T19:00:40.878Z,23.44
2018-07-26T19:03:10.057Z,23.37
2018-07-26T19:05:38.901Z,23.35
2018-07-26T19:08:07.964Z,23.30
2018-07-26T19:10:36.949Z,23.24
2018-07-26T19:13:06.151Z,23.20
2018-07-26T19:15:34.962Z,23.14
2018-07-26T19:18:03.760Z,23.08
2018-07-26T19:20:33.001Z,23.08
2018-07-26T19:23:01.797Z,23.06
2018-07-26T19:25:31.553Z,23.07
2018-07-26T19:28:00.333Z,23.07
2018-07-26T19:30:30.011Z,23.01
2018-07-26T19:32:58.789Z,23.02
2018-07-26T19:35:27.613Z,23.00
2018-07-26T19:37:58.203Z,22.92
2018-07-26T19:40:26.921Z,22.75
2018-07-26T19:42:55.652Z,22.62
2018-07-26T19:45:24.366Z,22.51
2018-07-26T19:47:53.197Z,22.42
2018-07-26T19:50:22.029Z,22.36
2018-07-26T19:52:50.750Z,22.29
2018-07-26T19:55:19.558Z,22.22
2018-07-26T19:57:48.306Z,22.18
2018-07-26T20:00:17.271Z,22.10
2018-07-26T20:02:46.222Z,22.06
2018-07-26T20:05:15.041Z,22.04
2018-07-26T20:07:43.885Z,22.05
2018-07-26T20:10:13.630Z,22.04
2018-07-26T20:12:42.753Z,22.01
2018-07-26T20:15:11.920Z,22.01
2018-07-26T20:17:40.686Z,22.05
2018-07-26T20:20:11.125Z,22.03
2018-07-26T20:22:40.149Z,21.98
2018-07-26T20:25:09.529Z,21.91
2018-07-26T20:27:38.378Z,21.90
2018-07-26T20:30:08.938Z,21.83
2018-07-26T20:32:38.038Z,21.81
2018-07-26T20:35:07.989Z,21.83
2018-07-26T20:37:36.739Z,21.81
2018-07-26T20:40:06.890Z,21.84
2018-07-26T20:42:36.181Z,21.93
2018-07-26T20:45:06.286Z,21.87
2018-07-26T20:47:35.113Z,21.82
2018-07-26T20:50:04.191Z,21.82
2018-07-26T20:52:33.735Z,21.81
2018-07-26T20:55:02.722Z,21.81
2018-07-26T20:57:31.547Z,21.83
2018-07-26T21:00:00.355Z,21.85
2018-07-26T21:02:29.166Z,21.81
2018-07-26T21:04:57.971Z,21.73
2018-07-26T21:07:27.336Z,21.71
2018-07-26T21:09:56.082Z,21.71
2018-07-26T21:12:24.880Z,21.66
2018-07-26T21:14:53.648Z,21.55
2018-07-26T21:17:22.378Z,21.53
2018-07-26T21:19:51.133Z,21.49
2018-07-26T21:22:19.897Z,21.49
2018-07-26T21:24:48.709Z,21.47
2018-07-26T21:27:17.463Z,21.47
2018-07-26T21:29:46.274Z,21.50
2018-07-26T21:32:15.371Z,21.50
2018-07-26T21:34:44.155Z,21.47
2018-07-26T21:37:13.209Z,21.43
2018-07-26T21:39:42.046Z,21.41
2018-07-26T21:42:11.020Z,21.38
2018-07-26T21:44:39.804Z,21.40
2018-07-26T21:47:09.147Z,21.39
2018-07-26T21:49:37.883Z,21.40
2018-07-26T21:52:06.764Z,21.42
2018-07-26T21:54:35.562Z,21.37
2018-07-26T21:57:04.766Z,21.33
2018-07-26T21:59:33.633Z,21.24
2018-07-26T22:02:02.583Z,21.21
2018-07-26T22:04:31.361Z,21.15
2018-07-26T22:07:00.137Z,21.14
2018-07-26T22:09:28.972Z,21.13
2018-07-26T22:11:58.186Z,21.13
2018-07-26T22:14:26.965Z,21.16
2018-07-26T22:16:55.881Z,21.14
2018-07-26T22:19:24.681Z,21.14
2018-07-26T22:21:53.501Z,21.15
2018-07-26T22:24:22.273Z,21.10
2018-07-26T22:26:51.250Z,21.06
2018-07-26T22:29:20.022Z,21.04
2018-07-26T22:31:48.821Z,21.04
2018-07-26T22:34:17.612Z,20.98
2018-07-26T22:36:46.398Z,20.98
2018-07-26T22:39:15.162Z,20.92
2018-07-26T22:41:43.965Z,20.92
2018-07-26T22:44:13.076Z,20.87
2018-07-26T22:46:41.870Z,20.84
2018-07-26T22:49:10.639Z,20.81
2018-07-26T22:51:39.413Z,20.78
2018-07-26T22:54:08.316Z,20.78
2018-07-26T22:56:37.167Z,20.78
2018-07-26T22:59:06.091Z,20.75
2018-07-26T23:01:34.942Z,20.71
2018-07-26T23:04:03.730Z,20.65
2018-07-26T23:06:32.549Z,20.63
2018-07-26T23:09:01.322Z,20.64
2018-07-26T23:11:30.061Z,20.62
2018-07-26T23:13:58.839Z,20.63
2018-07-26T23:16:27.628Z,20.64
2018-07-26T23:18:56.404Z,20.63
2018-07-26T23:21:25.569Z,20.62
2018-07-26T23:23:54.357Z,20.64
2018-07-26T23:26:23.154Z,20.65
2018-07-26T23:28:51.978Z,20.65
2018-07-26T23:31:20.751Z,20.64
2018-07-26T23:33:49.530Z,20.66
2018-07-26T23:36:18.313Z,20.67
2018-07-26T23:38:47.094Z,20.67
2018-07-26T23:41:15.850Z,20.68
2018-07-26T23:43:44.654Z,20.67
2018-07-26T23:46:13.447Z,20.62
2018-07-26T23:48:42.293Z,20.56
2018-07-26T23:51:11.141Z,20.56
2018-07-26T23:53:39.979Z,20.53
2018-07-26T23:56:08.870Z,20.52
2018-07-26T23:58:37.645Z,20.49
